createdAt,value
2023-01-18T00:01:02.119Z,12.82
2023-01-18T00:02:04.596Z,12.95
2023-01-18T00:03:08.768Z,13.30
2023-01-18T00:04:11.233Z,13.32
2023-01-18T00:05:13.525Z,13.40
2023-01-18T00:06:16.492Z,13.52
2023-01-18T00:07:18.123Z,14.00
2023-01-18T00:08:20.629Z,13.30
2023-01-18T00:09:22.186Z,13.27
2023-01-18T00:10:24.977Z,13.32
2023-01-18T00:11:29.794Z,12.82
2023-01-18T00:12:35.404Z,11.93
2023-01-18T00:13:37.651Z,11.93
2023-01-18T00:14:40.178Z,12.68
2023-01-18T00:15:41.752Z,12.57
2023-01-18T00:16:44.279Z,12.75
2023-01-18T00:17:51.523Z,12.95
2023-01-18T00:18:55.669Z,12.02
2023-01-18T00:19:57.220Z,12.13
2023-01-18T00:21:02.859Z,13.27
2023-01-18T00:22:04.414Z,12.18
2023-01-18T00:23:06.889Z,12.75
2023-01-18T00:24:11.356Z,11.73
2023-01-18T00:25:13.969Z,12.75
2023-01-18T00:26:15.809Z,11.38
2023-01-18T00:27:18.565Z,12.00
2023-01-18T00:28:24.550Z,11.57
2023-01-18T00:29:27.070Z,12.13
2023-01-18T00:30:29.361Z,12.45
2023-01-18T00:31:32.045Z,11.50
2023-01-18T00:32:34.399Z,12.25
2023-01-18T00:33:36.865Z,11.77
2023-01-18T00:34:38.393Z,12.00
2023-01-18T00:35:40.890Z,11.65
2023-01-18T00:36:42.401Z,11.20
2023-01-18T00:37:45.254Z,11.75
2023-01-18T00:38:51.720Z,11.57
2023-01-18T00:39:54.261Z,11.70
2023-01-18T00:40:55.963Z,11.32
2023-01-18T00:42:16.152Z,11.80
2023-01-18T00:43:36.452Z,9.50
2023-01-18T00:44:40.309Z,8.60
2023-01-18T00:45:42.788Z,12.02
2023-01-18T00:46:45.280Z,12.38
2023-01-18T00:47:46.953Z,11.90
2023-01-18T00:48:51.654Z,11.55
2023-01-18T00:49:53.229Z,11.80
2023-01-18T00:50:55.833Z,11.57
2023-01-18T00:51:58.909Z,12.10
2023-01-18T00:53:00.759Z,11.30
2023-01-18T00:54:03.328Z,11.25
2023-01-18T00:55:06.163Z,10.18
2023-01-18T00:56:11.100Z,11.20
2023-01-18T00:57:12.743Z,11.15
2023-01-18T00:58:15.240Z,10.85
2023-01-18T00:59:16.792Z,10.93
2023-01-18T01:00:26.875Z,11.55
2023-01-18T01:01:29.554Z,8.35
2023-01-18T01:02:31.284Z,11.30
2023-01-18T01:03:54.253Z,11.45
2023-01-18T01:05:14.120Z,11.02
2023-01-18T01:06:34.194Z,11.25
2023-01-18T01:07:35.742Z,11.55
2023-01-18T01:08:38.248Z,10.93
2023-01-18T01:09:39.961Z,10.60
2023-01-18T01:10:42.497Z,10.45
2023-01-18T01:12:05.356Z,10.20
2023-01-18T01:13:25.547Z,10.85
2023-01-18T01:14:45.952Z,8.23
2023-01-18T01:16:07.566Z,8.93
2023-01-18T01:17:27.260Z,10.75
2023-01-18T01:18:47.560Z,11.88
2023-01-18T01:20:07.355Z,9.50
2023-01-18T01:21:27.092Z,13.60
2023-01-18T01:22:46.805Z,14.90
2023-01-18T01:24:06.578Z,14.90
2023-01-18T01:25:27.375Z,15.23
2023-01-18T01:26:29.812Z,11.38
2023-01-18T01:27:31.379Z,15.18
2023-01-18T01:28:33.994Z,13.80
2023-01-18T01:29:35.506Z,14.88
2023-01-18T01:30:38.015Z,13.75
2023-01-18T01:31:41.852Z,14.98
2023-01-18T01:32:44.447Z,14.75
2023-01-18T01:33:49.077Z,14.45
2023-01-18T01:34:51.594Z,14.35
2023-01-18T01:35:56.003Z,13.38
2023-01-18T01:36:59.195Z,13.48
2023-01-18T01:38:00.807Z,14.27
2023-01-18T01:39:03.786Z,14.73
2023-01-18T01:40:06.474Z,13.18
2023-01-18T01:41:12.123Z,13.45
2023-01-18T01:42:13.662Z,12.82
2023-01-18T01:43:16.400Z,12.35
2023-01-18T01:44:42.701Z,11.75
2023-01-18T01:45:45.362Z,11.30
2023-01-18T01:46:50.783Z,11.23
2023-01-18T01:47:54.151Z,11.52
2023-01-18T01:49:02.310Z,11.68
2023-01-18T01:50:12.453Z,11.18
2023-01-18T01:51:15.159Z,11.45
2023-01-18T01:52:23.823Z,10.65
2023-01-18T01:53:25.548Z,11.25
2023-01-18T01:54:32.737Z,11.40
2023-01-18T01:55:37.652Z,11.10
2023-01-18T01:56:41.781Z,12.10
2023-01-18T01:57:49.001Z,11.25
2023-01-18T01:58:54.528Z,11.18
2023-01-18T02:00:00.187Z,11.85
2023-01-18T02:01:03.025Z,11.38
2023-01-18T02:02:06.922Z,11.18
2023-01-18T02:03:12.631Z,11.82
2023-01-18T02:04:14.173Z,12.00
2023-01-18T02:05:18.745Z,11.18
2023-01-18T02:06:31.486Z,10.93
2023-01-18T02:07:34.976Z,10.68
2023-01-18T02:08:36.675Z,10.77
2023-01-18T02:09:39.871Z,10.50
2023-01-18T02:10:42.525Z,10.63
2023-01-18T02:11:44.408Z,10.70
2023-01-18T02:12:49.771Z,10.65
2023-01-18T02:13:51.521Z,10.60
2023-01-18T02:14:55.146Z,11.00
2023-01-18T02:16:02.315Z,11.07
2023-01-18T02:17:22.750Z,10.02
2023-01-18T02:18:29.721Z,11.00
2023-01-18T02:19:59.451Z,9.90
2023-01-18T02:21:11.319Z,11.25
2023-01-18T02:22:28.655Z,11.30
2023-01-18T02:23:43.839Z,10.75
2023-01-18T02:25:07.995Z,10.77
2023-01-18T02:27:04.051Z,10.85
2023-01-18T02:28:10.445Z,10.40
2023-01-18T02:29:17.514Z,9.50
2023-01-18T02:30:27.066Z,9.70
2023-01-18T02:31:34.289Z,10.05
2023-01-18T02:32:51.905Z,9.57
2023-01-18T02:33:58.455Z,9.70
2023-01-18T02:35:08.885Z,9.38
2023-01-18T02:36:21.361Z,7.28
2023-01-18T02:37:32.047Z,9.23
2023-01-18T02:38:40.862Z,7.53
2023-01-18T02:39:52.543Z,9.88
2023-01-18T02:41:08.383Z,9.73
2023-01-18T02:42:36.651Z,8.88
2023-01-18T02:44:00.334Z,9.43
2023-01-18T02:45:23.210Z,9.05
2023-01-18T02:46:33.950Z,9.43
2023-01-18T02:47:36.898Z,9.70
2023-01-18T02:48:42.194Z,9.18
2023-01-18T02:49:43.760Z,9.65
2023-01-18T02:50:46.274Z,9.23
2023-01-18T02:51:47.837Z,9.25
2023-01-18T02:52:52.069Z,8.98
2023-01-18T02:53:54.816Z,8.90
2023-01-18T02:54:56.359Z,9.60
2023-01-18T02:56:02.256Z,8.85
2023-01-18T02:57:08.726Z,8.85
2023-01-18T02:58:21.771Z,9.82
2023-01-18T02:59:29.666Z,8.70
2023-01-18T03:00:35.228Z,9.13
2023-01-18T03:01:42.379Z,9.65
2023-01-18T03:02:46.448Z,9.48
2023-01-18T03:03:52.481Z,9.25
2023-01-18T03:04:55.534Z,9.55
2023-01-18T03:06:01.745Z,9.07
2023-01-18T03:07:09.735Z,9.32
2023-01-18T03:08:19.995Z,9.95
2023-01-18T03:09:22.498Z,9.02
2023-01-18T03:10:32.376Z,8.20
2023-01-18T03:11:39.914Z,8.82
2023-01-18T03:12:52.797Z,8.20
2023-01-18T03:14:02.249Z,9.25
2023-01-18T03:15:13.018Z,9.30
2023-01-18T03:17:26.644Z,8.52
2023-01-18T03:18:36.677Z,8.95
2023-01-18T03:20:03.074Z,6.70
2023-01-18T03:21:08.457Z,8.32
2023-01-18T03:22:10.593Z,8.43
2023-01-18T03:23:36.409Z,8.65
2023-01-18T03:24:41.352Z,8.57
2023-01-18T03:25:46.084Z,8.82
2023-01-18T03:26:53.408Z,8.73
2023-01-18T03:28:15.295Z,9.52
2023-01-18T03:29:38.688Z,7.90
2023-01-18T03:31:01.898Z,8.90
2023-01-18T03:32:29.197Z,8.68
2023-01-18T03:33:47.676Z,7.90
2023-01-18T03:34:54.815Z,9.05
2023-01-18T03:36:00.219Z,8.45
2023-01-18T03:37:05.160Z,8.80
2023-01-18T03:38:07.967Z,9.40
2023-01-18T03:39:16.032Z,8.30
2023-01-18T03:40:23.730Z,8.95
2023-01-18T03:41:29.544Z,8.63
2023-01-18T03:42:35.704Z,9.35
2023-01-18T03:43:38.800Z,8.55
2023-01-18T03:44:47.293Z,8.13
2023-01-18T03:45:54.744Z,8.68
2023-01-18T03:46:57.836Z,8.38
2023-01-18T03:47:59.903Z,8.65
2023-01-18T03:49:02.728Z,8.23
2023-01-18T03:50:05.560Z,8.48
2023-01-18T03:51:16.522Z,8.45
2023-01-18T03:52:23.800Z,7.53
2023-01-18T03:53:32.793Z,8.32
2023-01-18T03:54:38.432Z,8.02
2023-01-18T03:55:44.941Z,8.13
2023-01-18T03:56:51.884Z,8.05
2023-01-18T03:57:56.930Z,7.35
2023-01-18T03:59:03.035Z,7.80
2023-01-18T04:00:08.629Z,8.50
2023-01-18T04:01:14.238Z,7.88
2023-01-18T04:02:18.204Z,7.55
2023-01-18T04:03:19.787Z,7.97
2023-01-18T04:04:22.257Z,7.70
2023-01-18T04:05:24.435Z,8.40
2023-01-18T04:06:27.633Z,6.95
2023-01-18T04:07:29.662Z,7.60
2023-01-18T04:08:32.301Z,8.05
2023-01-18T04:09:33.861Z,8.15
2023-01-18T04:10:36.337Z,7.75
2023-01-18T04:11:37.886Z,7.95
2023-01-18T04:12:40.397Z,7.18
2023-01-18T04:13:41.915Z,7.72
2023-01-18T04:14:44.395Z,7.72
2023-01-18T04:15:46.111Z,7.82
2023-01-18T04:16:50.306Z,7.45
2023-01-18T04:17:53.539Z,7.93
2023-01-18T04:18:56.165Z,7.47
2023-01-18T04:19:57.707Z,7.47
2023-01-18T04:21:01.075Z,6.88
2023-01-18T04:22:02.629Z,7.68
2023-01-18T04:23:05.107Z,7.25
2023-01-18T04:24:07.291Z,6.63
2023-01-18T04:25:10.508Z,7.32
2023-01-18T04:26:13.486Z,6.45
2023-01-18T04:27:15.996Z,6.75
2023-01-18T04:28:25.168Z,6.82
2023-01-18T04:29:28.126Z,7.22
2023-01-18T04:30:29.688Z,6.65
2023-01-18T04:31:32.341Z,6.85
2023-01-18T04:32:35.279Z,7.00
2023-01-18T04:33:37.809Z,6.75
2023-01-18T04:34:39.353Z,6.75
2023-01-18T04:35:41.824Z,7.25
2023-01-18T04:36:44.663Z,6.50
2023-01-18T04:37:51.512Z,7.20
2023-01-18T04:38:54.889Z,6.90
2023-01-18T04:39:56.442Z,7.07
2023-01-18T04:41:14.353Z,6.30
2023-01-18T04:42:16.393Z,6.68
2023-01-18T04:43:19.025Z,6.70
2023-01-18T04:44:20.569Z,6.60
2023-01-18T04:45:23.324Z,6.30
2023-01-18T04:46:25.878Z,6.53
2023-01-18T04:47:29.024Z,6.65
2023-01-18T04:48:32.830Z,6.22
2023-01-18T04:49:34.506Z,6.30
2023-01-18T04:50:39.333Z,6.57
2023-01-18T04:51:42.080Z,6.25
2023-01-18T04:52:44.749Z,6.43
2023-01-18T04:53:46.671Z,6.80
2023-01-18T04:54:49.226Z,6.57
2023-01-18T04:55:50.855Z,7.00
2023-01-18T04:56:53.601Z,6.97
2023-01-18T04:57:56.621Z,6.90
2023-01-18T04:58:59.077Z,6.82
2023-01-18T05:00:02.222Z,6.97
2023-01-18T05:01:06.630Z,7.25
2023-01-18T05:02:08.318Z,7.03
2023-01-18T05:03:12.330Z,7.43
2023-01-18T05:04:15.168Z,7.05
2023-01-18T05:05:18.112Z,7.40
2023-01-18T05:06:20.202Z,7.28
2023-01-18T05:07:25.474Z,7.32
2023-01-18T05:08:27.042Z,7.07
2023-01-18T05:09:29.511Z,6.90
2023-01-18T05:10:33.554Z,6.78
2023-01-18T05:11:36.154Z,7.22
2023-01-18T05:12:37.806Z,6.90
2023-01-18T05:13:41.209Z,7.65
2023-01-18T05:14:42.718Z,7.15
2023-01-18T05:15:45.209Z,6.90
2023-01-18T05:16:46.810Z,7.07
2023-01-18T05:17:49.428Z,6.82
2023-01-18T05:18:51.800Z,7.40
2023-01-18T05:19:55.864Z,6.63
2023-01-18T05:20:57.498Z,7.38
2023-01-18T05:22:00.162Z,7.03
2023-01-18T05:23:11.187Z,6.85
2023-01-18T05:24:13.688Z,7.75
2023-01-18T05:25:15.389Z,7.38
2023-01-18T05:26:19.576Z,7.50
2023-01-18T05:27:21.303Z,6.90
2023-01-18T05:28:24.766Z,7.30
2023-01-18T05:29:26.267Z,7.53
2023-01-18T05:30:28.721Z,7.97
2023-01-18T05:31:31.215Z,7.82
2023-01-18T05:32:33.751Z,7.80
2023-01-18T05:33:35.813Z,7.97
2023-01-18T05:34:38.339Z,8.10
2023-01-18T05:35:41.244Z,8.13
2023-01-18T05:36:43.692Z,8.07
2023-01-18T05:37:45.225Z,7.75
2023-01-18T05:38:47.993Z,7.57
2023-01-18T05:39:49.607Z,7.40
2023-01-18T05:40:53.927Z,7.88
2023-01-18T05:41:55.537Z,7.55
2023-01-18T05:42:58.414Z,7.72
2023-01-18T05:44:01.142Z,7.47
2023-01-18T05:45:02.737Z,7.75
2023-01-18T05:46:05.660Z,7.38
2023-01-18T05:47:07.333Z,7.72
2023-01-18T05:48:10.192Z,7.53
2023-01-18T05:49:11.689Z,7.72
2023-01-18T05:50:14.557Z,7.43
2023-01-18T05:51:19.727Z,7.05
2023-01-18T05:52:23.005Z,7.85
2023-01-18T05:53:25.667Z,8.15
2023-01-18T05:54:28.383Z,7.45
2023-01-18T05:55:30.336Z,7.13
2023-01-18T05:56:33.139Z,7.65
2023-01-18T05:57:34.688Z,6.93
2023-01-18T05:58:38.258Z,7.47
2023-01-18T05:59:40.035Z,6.88
2023-01-18T06:00:42.511Z,7.50
2023-01-18T06:01:44.049Z,7.15
2023-01-18T06:02:46.877Z,7.28
2023-01-18T06:03:48.437Z,6.82
2023-01-18T06:04:50.923Z,7.28
2023-01-18T06:05:52.513Z,6.72
2023-01-18T06:06:56.451Z,6.80
2023-01-18T06:07:57.986Z,7.22
2023-01-18T06:09:01.365Z,7.00
2023-01-18T06:10:03.080Z,7.07
2023-01-18T06:11:06.428Z,6.82
2023-01-18T06:12:08.204Z,7.20
2023-01-18T06:13:11.233Z,6.55
2023-01-18T06:14:14.537Z,6.60
2023-01-18T06:15:17.141Z,6.75
2023-01-18T06:16:19.747Z,6.95
2023-01-18T06:17:21.374Z,6.65
2023-01-18T06:18:24.961Z,6.90
2023-01-18T06:19:27.594Z,6.93
2023-01-18T06:20:30.558Z,6.07
2023-01-18T06:21:33.272Z,6.97
2023-01-18T06:22:36.447Z,7.00
2023-01-18T06:23:39.597Z,6.95
2023-01-18T06:24:41.156Z,6.97
2023-01-18T06:25:44.034Z,7.10
2023-01-18T06:26:45.868Z,6.72
2023-01-18T06:27:48.443Z,7.13
2023-01-18T06:28:49.989Z,6.60
2023-01-18T06:29:52.455Z,6.70
2023-01-18T06:30:55.323Z,7.03
2023-01-18T06:31:58.247Z,7.03
2023-01-18T06:33:04.902Z,6.57
2023-01-18T06:34:09.374Z,6.57
2023-01-18T06:35:12.044Z,6.97
2023-01-18T06:36:13.604Z,6.72
2023-01-18T06:37:16.229Z,6.75
2023-01-18T06:38:19.263Z,7.10
2023-01-18T06:39:21.737Z,6.30
2023-01-18T06:40:23.459Z,6.95
2023-01-18T06:41:25.980Z,6.05
2023-01-18T06:42:27.674Z,6.68
2023-01-18T06:43:30.454Z,6.57
2023-01-18T06:44:32.988Z,6.40
2023-01-18T06:45:35.125Z,6.88
2023-01-18T06:46:37.621Z,6.60
2023-01-18T06:47:39.175Z,6.90
2023-01-18T06:48:41.682Z,6.05
2023-01-18T06:49:43.857Z,6.18
2023-01-18T06:50:46.316Z,6.28
2023-01-18T06:51:48.817Z,6.53
2023-01-18T06:52:51.392Z,6.15
2023-01-18T06:53:55.282Z,6.05
2023-01-18T06:54:57.146Z,6.60
2023-01-18T06:56:01.894Z,6.50
2023-01-18T06:57:03.606Z,6.18
2023-01-18T06:58:06.375Z,6.03
2023-01-18T06:59:08.642Z,6.22
2023-01-18T07:00:13.063Z,5.65
2023-01-18T07:01:15.647Z,5.60
2023-01-18T07:02:17.259Z,6.10
2023-01-18T07:03:19.748Z,5.35
2023-01-18T07:04:21.315Z,5.97
2023-01-18T07:05:23.826Z,5.57
2023-01-18T07:06:25.406Z,7.00
2023-01-18T07:07:28.244Z,5.50
2023-01-18T07:08:30.995Z,5.72
2023-01-18T07:09:35.033Z,5.50
2023-01-18T07:10:36.902Z,6.75
2023-01-18T07:11:43.105Z,5.25
2023-01-18T07:12:48.650Z,5.47
2023-01-18T07:13:51.861Z,5.20
2023-01-18T07:14:54.327Z,5.65
2023-01-18T07:16:01.104Z,5.57
2023-01-18T07:17:04.747Z,5.15
2023-01-18T07:18:06.418Z,5.18
2023-01-18T07:19:09.178Z,5.30
2023-01-18T07:20:13.560Z,5.50
2023-01-18T07:21:17.594Z,5.43
2023-01-18T07:22:19.421Z,5.95
2023-01-18T07:23:21.909Z,5.45
2023-01-18T07:24:23.451Z,5.53
2023-01-18T07:25:27.611Z,4.95
2023-01-18T07:26:30.625Z,5.30
2023-01-18T07:27:32.133Z,5.43
2023-01-18T07:28:36.158Z,4.95
2023-01-18T07:29:37.672Z,4.90
2023-01-18T07:30:40.238Z,4.90
2023-01-18T07:31:42.784Z,4.43
2023-01-18T07:32:48.784Z,4.80
2023-01-18T07:33:51.397Z,5.03
2023-01-18T07:34:53.848Z,5.07
2023-01-18T07:35:57.191Z,4.90
2023-01-18T07:36:59.657Z,4.75
2023-01-18T07:38:01.201Z,4.28
2023-01-18T07:39:04.962Z,4.50
2023-01-18T07:40:08.702Z,4.18
2023-01-18T07:41:14.483Z,3.80
2023-01-18T07:42:16.992Z,3.90
2023-01-18T07:43:18.537Z,4.53
2023-01-18T07:44:20.992Z,4.50
2023-01-18T07:45:22.568Z,4.20
2023-01-18T07:46:26.041Z,4.03
2023-01-18T07:47:27.959Z,4.35
2023-01-18T07:48:31.023Z,4.63
2023-01-18T07:49:33.465Z,3.83
2023-01-18T07:50:35.009Z,4.40
2023-01-18T07:51:37.710Z,4.13
2023-01-18T07:52:39.264Z,4.07
2023-01-18T07:53:42.262Z,4.32
2023-01-18T07:54:45.499Z,3.90
2023-01-18T07:55:47.026Z,4.35
2023-01-18T07:56:51.454Z,3.78
2023-01-18T07:57:56.386Z,3.75
2023-01-18T07:58:58.854Z,3.53
2023-01-18T08:00:00.496Z,4.05
2023-01-18T08:01:04.525Z,3.63
2023-01-18T08:02:08.777Z,3.45
2023-01-18T08:03:12.456Z,3.35
2023-01-18T08:04:15.159Z,3.90
2023-01-18T08:05:20.173Z,3.97
2023-01-18T08:06:25.033Z,3.33
2023-01-18T08:07:26.730Z,3.58
2023-01-18T08:08:29.899Z,3.78
2023-01-18T08:09:33.952Z,3.67
2023-01-18T08:10:35.592Z,3.47
2023-01-18T08:11:38.115Z,3.35
2023-01-18T08:12:41.187Z,3.55
2023-01-18T08:13:43.742Z,3.30
2023-01-18T08:14:46.227Z,3.30
2023-01-18T08:15:47.822Z,3.60
2023-01-18T08:16:50.356Z,3.53
2023-01-18T08:17:51.973Z,3.33
2023-01-18T08:18:54.568Z,3.15
2023-01-18T08:19:56.174Z,3.28
2023-01-18T08:20:59.690Z,3.72
2023-01-18T08:22:02.232Z,3.38
2023-01-18T08:23:04.040Z,3.45
2023-01-18T08:24:07.053Z,3.85
2023-01-18T08:25:09.797Z,3.33
2023-01-18T08:26:14.941Z,4.22
2023-01-18T08:27:16.746Z,3.50
2023-01-18T08:28:20.665Z,3.67
2023-01-18T08:29:22.483Z,3.58
2023-01-18T08:30:27.961Z,4.10
2023-01-18T08:31:30.538Z,3.50
2023-01-18T08:32:32.438Z,3.83
2023-01-18T08:33:38.240Z,4.13
2023-01-18T08:34:40.865Z,3.83
2023-01-18T08:35:44.329Z,3.90
2023-01-18T08:36:46.866Z,4.22
2023-01-18T08:37:48.411Z,3.50
2023-01-18T08:38:52.493Z,3.65
2023-01-18T08:39:55.002Z,3.78
2023-01-18T08:40:56.527Z,4.05
2023-01-18T08:41:59.077Z,4.10
2023-01-18T08:43:02.596Z,3.70
2023-01-18T08:44:06.440Z,4.32
2023-01-18T08:45:09.777Z,4.10
2023-01-18T08:46:12.306Z,4.13
2023-01-18T08:47:15.587Z,4.45
2023-01-18T08:48:18.106Z,4.30
2023-01-18T08:49:20.711Z,4.00
2023-01-18T08:50:23.273Z,3.75
2023-01-18T08:51:26.293Z,4.15
2023-01-18T08:52:27.999Z,4.00
2023-01-18T08:53:31.059Z,4.43
2023-01-18T08:54:33.550Z,3.85
2023-01-18T08:55:38.326Z,3.88
2023-01-18T08:56:40.823Z,3.50
2023-01-18T08:57:42.539Z,3.90
2023-01-18T08:58:45.103Z,4.38
2023-01-18T08:59:48.970Z,3.80
2023-01-18T09:00:51.683Z,3.67
2023-01-18T09:01:54.321Z,4.55
2023-01-18T09:02:57.787Z,3.83
2023-01-18T09:04:00.670Z,4.00
2023-01-18T09:05:02.250Z,3.50
2023-01-18T09:06:08.219Z,4.13
2023-01-18T09:07:10.109Z,3.90
2023-01-18T09:08:12.834Z,3.92
2023-01-18T09:09:15.585Z,3.78
2023-01-18T09:10:17.311Z,4.20
2023-01-18T09:11:19.822Z,3.95
2023-01-18T09:12:22.479Z,4.22
2023-01-18T09:13:24.029Z,4.05
2023-01-18T09:14:26.740Z,4.38
2023-01-18T09:15:30.113Z,3.92
2023-01-18T09:16:32.671Z,3.70
2023-01-18T09:17:34.288Z,3.80
2023-01-18T09:18:37.049Z,3.90
2023-01-18T09:19:38.549Z,4.10
2023-01-18T09:20:41.059Z,4.70
2023-01-18T09:21:44.727Z,3.97
2023-01-18T09:22:48.710Z,4.00
2023-01-18T09:23:50.913Z,3.72
2023-01-18T09:24:53.769Z,3.92
2023-01-18T09:26:04.033Z,4.45
2023-01-18T09:27:06.578Z,2.75
2023-01-18T09:28:08.160Z,3.80
2023-01-18T09:29:10.721Z,4.55
2023-01-18T09:30:12.883Z,4.28
2023-01-18T09:31:16.838Z,4.28
2023-01-18T09:32:19.923Z,4.25
2023-01-18T09:33:21.519Z,4.72
2023-01-18T09:34:24.619Z,4.20
2023-01-18T09:35:27.641Z,4.07
2023-01-18T09:36:29.513Z,4.68
2023-01-18T09:37:32.725Z,4.80
2023-01-18T09:38:36.987Z,4.50
2023-01-18T09:39:50.993Z,4.75
2023-01-18T09:40:55.024Z,4.50
2023-01-18T09:42:01.220Z,4.40
2023-01-18T09:43:03.959Z,4.45
2023-01-18T09:44:10.662Z,4.85
2023-01-18T09:45:27.055Z,4.60
2023-01-18T09:46:35.879Z,4.78
2023-01-18T09:47:46.386Z,4.35
2023-01-18T09:48:57.335Z,3.30
2023-01-18T09:51:07.819Z,4.30
2023-01-18T09:52:26.240Z,4.45
2023-01-18T09:53:42.599Z,4.22
2023-01-18T09:54:52.602Z,5.07
2023-01-18T09:56:02.647Z,3.72
2023-01-18T09:57:15.246Z,3.70
2023-01-18T09:58:35.929Z,4.53
2023-01-18T09:59:44.240Z,3.47
2023-01-18T10:00:49.725Z,4.22
2023-01-18T10:01:55.944Z,5.43
2023-01-18T10:03:02.350Z,4.70
2023-01-18T10:04:08.808Z,4.80
2023-01-18T10:05:15.361Z,5.25
2023-01-18T10:06:24.222Z,4.90
2023-01-18T10:07:30.403Z,4.68
2023-01-18T10:08:32.088Z,4.93
2023-01-18T10:09:40.294Z,5.38
2023-01-18T10:10:57.297Z,5.38
2023-01-18T10:12:01.891Z,5.25
2023-01-18T10:13:17.523Z,4.75
2023-01-18T10:14:25.153Z,4.75
2023-01-18T10:15:35.117Z,4.68
2023-01-18T10:16:38.815Z,5.35
2023-01-18T10:17:44.275Z,4.80
2023-01-18T10:18:51.343Z,5.03
2023-01-18T10:19:53.966Z,5.50
2023-01-18T10:21:01.417Z,4.40
2023-01-18T10:22:07.810Z,5.30
2023-01-18T10:23:15.990Z,5.18
2023-01-18T10:24:37.928Z,5.03
2023-01-18T10:25:45.446Z,4.82
2023-01-18T10:26:50.061Z,5.10
2023-01-18T10:28:09.060Z,5.72
2023-01-18T10:29:17.771Z,5.40
2023-01-18T10:30:41.806Z,4.90
2023-01-18T10:31:51.692Z,5.10
2023-01-18T10:32:58.334Z,4.97
2023-01-18T10:34:04.591Z,5.05
2023-01-18T10:35:15.391Z,5.30
2023-01-18T10:37:35.703Z,5.18
2023-01-18T10:38:41.793Z,5.53
2023-01-18T10:39:49.435Z,5.15
2023-01-18T10:40:57.309Z,4.97
2023-01-18T10:42:05.904Z,4.68
2023-01-18T10:43:15.771Z,4.88
2023-01-18T10:44:17.334Z,4.85
2023-01-18T10:45:23.636Z,5.70
2023-01-18T10:46:26.261Z,5.18
2023-01-18T10:47:27.825Z,4.70
2023-01-18T10:48:34.030Z,5.30
2023-01-18T10:49:38.934Z,5.63
2023-01-18T10:50:47.261Z,5.40
2023-01-18T10:51:50.036Z,5.20
2023-01-18T10:52:51.629Z,5.43
2023-01-18T10:53:54.395Z,5.88
2023-01-18T10:55:01.304Z,5.40
2023-01-18T10:56:07.765Z,6.68
2023-01-18T10:57:21.843Z,5.80
2023-01-18T10:58:27.969Z,5.78
2023-01-18T10:59:37.358Z,5.95
2023-01-18T11:00:39.351Z,5.63
2023-01-18T11:01:54.647Z,5.72
2023-01-18T11:02:58.868Z,5.70
2023-01-18T11:04:07.768Z,5.63
2023-01-18T11:05:23.757Z,6.20
2023-01-18T11:06:26.717Z,5.75
2023-01-18T11:07:29.688Z,5.53
2023-01-18T11:08:34.631Z,5.60
2023-01-18T11:09:44.119Z,5.68
2023-01-18T11:10:46.350Z,5.80
2023-01-18T11:12:06.533Z,7.40
2023-01-18T11:13:26.354Z,6.43
2023-01-18T11:14:31.510Z,6.38
2023-01-18T11:15:33.351Z,6.45
2023-01-18T11:16:42.372Z,6.47
2023-01-18T11:17:45.988Z,6.18
2023-01-18T11:19:00.983Z,6.95
2023-01-18T11:20:07.653Z,6.28
2023-01-18T11:21:12.198Z,6.18
2023-01-18T11:22:16.951Z,6.90
2023-01-18T11:23:35.596Z,6.03
2023-01-18T11:24:38.478Z,6.68
2023-01-18T11:25:44.593Z,7.00
2023-01-18T11:26:55.774Z,6.68
2023-01-18T11:28:02.267Z,5.88
2023-01-18T11:29:07.974Z,6.80
2023-01-18T11:30:21.185Z,6.80
2023-01-18T11:31:25.804Z,6.78
2023-01-18T11:32:32.589Z,6.30
2023-01-18T11:33:34.824Z,6.95
2023-01-18T11:34:43.685Z,6.07
2023-01-18T11:35:51.612Z,6.53
2023-01-18T11:36:55.317Z,6.60
2023-01-18T11:37:59.961Z,6.07
2023-01-18T11:39:18.898Z,5.97
2023-01-18T11:40:26.887Z,6.50
2023-01-18T11:41:29.847Z,6.15
2023-01-18T11:42:35.007Z,6.18
2023-01-18T11:43:39.443Z,6.32
2023-01-18T11:44:48.332Z,6.47
2023-01-18T11:45:59.402Z,6.15
2023-01-18T11:47:09.199Z,6.18
2023-01-18T11:48:21.376Z,5.85
2023-01-18T11:49:47.810Z,5.90
2023-01-18T11:50:55.254Z,6.07
2023-01-18T11:52:02.150Z,6.20
2023-01-18T11:53:16.680Z,6.53
2023-01-18T11:54:26.572Z,6.65
2023-01-18T11:55:33.342Z,7.28
2023-01-18T11:56:42.397Z,7.25
2023-01-18T11:57:44.965Z,7.00
2023-01-18T11:58:49.569Z,6.72
2023-01-18T11:59:52.272Z,7.88
2023-01-18T12:01:03.663Z,8.27
2023-01-18T12:02:46.116Z,7.93
2023-01-18T12:03:55.888Z,8.40
2023-01-18T12:05:18.400Z,8.20
2023-01-18T12:06:34.020Z,8.73
2023-01-18T12:07:47.364Z,9.23
2023-01-18T12:09:03.642Z,10.35
2023-01-18T12:10:13.897Z,12.05
2023-01-18T12:11:34.393Z,9.88
2023-01-18T12:12:52.717Z,13.20
2023-01-18T12:14:06.035Z,13.35
2023-01-18T12:15:30.139Z,14.27
2023-01-18T12:16:55.364Z,14.18
2023-01-18T12:18:13.364Z,13.98
2023-01-18T12:19:53.307Z,14.93
2023-01-18T12:21:03.606Z,14.63
2023-01-18T12:22:26.595Z,11.15
2023-01-18T12:24:05.033Z,14.15
2023-01-18T12:25:22.329Z,14.07
2023-01-18T12:26:38.599Z,13.15
2023-01-18T12:27:51.321Z,11.63
2023-01-18T12:29:24.223Z,13.15
2023-01-18T12:30:43.165Z,13.18
2023-01-18T12:32:01.350Z,12.30
2023-01-18T12:33:13.893Z,12.48
2023-01-18T12:34:20.542Z,14.45
2023-01-18T12:35:39.060Z,13.02
2023-01-18T12:37:01.745Z,12.43
2023-01-18T12:38:17.368Z,10.35
2023-01-18T12:39:32.495Z,12.27
2023-01-18T12:40:49.691Z,11.77
2023-01-18T12:41:58.555Z,12.20
2023-01-18T12:43:09.914Z,10.10
2023-01-18T12:44:25.609Z,10.80
2023-01-18T12:45:37.830Z,10.75
2023-01-18T12:46:47.743Z,10.38
2023-01-18T12:48:01.234Z,9.80
2023-01-18T12:49:11.228Z,9.77
2023-01-18T12:50:25.088Z,7.22
2023-01-18T12:51:31.234Z,9.65
2023-01-18T12:52:40.619Z,10.05
2023-01-18T12:53:48.514Z,11.23
2023-01-18T12:54:55.959Z,11.40
2023-01-18T12:56:07.392Z,12.02
2023-01-18T12:57:11.207Z,12.77
2023-01-18T12:58:21.472Z,12.20
2023-01-18T12:59:30.748Z,13.32
2023-01-18T13:00:36.697Z,13.57
2023-01-18T13:01:43.899Z,14.30
2023-01-18T13:02:50.834Z,13.75
2023-01-18T13:03:59.400Z,12.40
2023-01-18T13:05:07.946Z,13.30
2023-01-18T13:06:11.638Z,12.13
2023-01-18T13:07:16.140Z,11.65
2023-01-18T13:08:27.690Z,12.07
2023-01-18T13:09:36.111Z,11.57
2023-01-18T13:10:37.995Z,12.23
2023-01-18T13:11:43.982Z,11.27
2023-01-18T13:12:46.215Z,10.57
2023-01-18T13:13:53.037Z,10.95
2023-01-18T13:15:04.940Z,10.43
2023-01-18T13:16:18.318Z,10.43
2023-01-18T13:17:27.579Z,10.90
2023-01-18T13:18:36.639Z,10.98
2023-01-18T13:19:43.876Z,10.65
2023-01-18T13:21:00.707Z,11.00
2023-01-18T13:22:11.366Z,11.68
2023-01-18T13:23:25.435Z,8.85
2023-01-18T13:24:46.357Z,11.20
2023-01-18T13:27:09.929Z,9.65
2023-01-18T13:28:18.243Z,9.88
2023-01-18T13:29:28.403Z,10.73
2023-01-18T13:30:33.952Z,8.20
2023-01-18T13:31:37.548Z,12.13
2023-01-18T13:32:42.383Z,11.90
2023-01-18T13:33:46.544Z,11.05
2023-01-18T13:35:12.945Z,11.80
2023-01-18T13:36:21.603Z,11.23
2023-01-18T13:37:40.316Z,11.15
2023-01-18T13:38:51.801Z,11.95
2023-01-18T13:39:54.750Z,10.90
2023-01-18T13:41:01.195Z,11.95
2023-01-18T13:42:31.919Z,11.50
2023-01-18T13:44:05.828Z,11.05
2023-01-18T13:45:17.179Z,8.32
2023-01-18T13:46:22.964Z,9.43
2023-01-18T13:47:53.247Z,8.73
2023-01-18T13:48:57.579Z,8.27
2023-01-18T13:50:00.148Z,6.78
2023-01-18T13:51:02.701Z,7.38
2023-01-18T13:52:35.307Z,6.65
2023-01-18T13:53:49.712Z,6.22
2023-01-18T13:55:03.984Z,6.55
2023-01-18T13:56:30.755Z,6.22
2023-01-18T13:57:37.278Z,6.68
2023-01-18T13:58:40.275Z,5.95
2023-01-18T13:59:48.754Z,5.95
2023-01-18T14:00:50.624Z,6.38
2023-01-18T14:01:53.357Z,5.85
2023-01-18T14:03:04.993Z,6.25
2023-01-18T14:04:22.029Z,6.45
2023-01-18T14:05:27.224Z,6.30
2023-01-18T14:06:32.644Z,5.75
2023-01-18T14:07:47.410Z,6.07
2023-01-18T14:08:53.344Z,6.90
2023-01-18T14:10:03.366Z,6.28
2023-01-18T14:11:08.824Z,6.50
2023-01-18T14:12:13.053Z,6.15
2023-01-18T14:13:17.579Z,6.68
2023-01-18T14:14:29.672Z,5.82
2023-01-18T14:15:49.944Z,6.10
2023-01-18T14:16:58.983Z,4.85
2023-01-18T14:18:01.547Z,6.30
2023-01-18T14:19:15.743Z,6.93
2023-01-18T14:20:42.368Z,6.38
2023-01-18T14:22:09.022Z,6.90
2023-01-18T14:23:34.165Z,6.45
2023-01-18T14:24:55.206Z,6.18
2023-01-18T14:27:03.464Z,6.07
2023-01-18T14:28:13.569Z,6.28
2023-01-18T14:29:25.014Z,6.53
2023-01-18T14:30:32.497Z,5.75
2023-01-18T14:31:39.328Z,7.32
2023-01-18T14:32:47.166Z,7.15
2023-01-18T14:33:51.046Z,6.13
2023-01-18T14:35:00.755Z,6.72
2023-01-18T14:36:05.607Z,6.47
2023-01-18T14:37:27.010Z,6.75
2023-01-18T14:38:30.845Z,5.72
2023-01-18T14:39:33.409Z,5.18
2023-01-18T14:40:37.022Z,6.30
2023-01-18T14:41:43.264Z,5.72
2023-01-18T14:42:50.449Z,5.80
2023-01-18T14:43:53.513Z,6.13
2023-01-18T14:44:58.527Z,6.25